Terminal Aerodrome Forecast
Issued by NWS Wilmington, OH

Current Version | Previous Version | Text Only | Print | Product List | Glossary Off
Versions: 1 2 3 4 5 6 7 8 9 10 11 12 13 14 15 16

000
FTUS41 KILN 311100
TAFILN
TAF
KILN 311137Z 3112/0112 22005KT P6SM OVC045
     FM311600 28011KT P6SM -SHRA OVC025
     FM312100 30013G21KT P6SM -SHRA OVC015
     FM010000 32019G30KT P6SM -SHRA OVC010
     FM010400 33019G30KT 2SM -SN BR OVC008=

USA.gov is the U.S. government's official web portal to all federal, state and local government web resources and services.